Time;durP1;ratioP1;P1;durP2;ratioP2;P2;SDS_P1;SDS_P2;PMS_P1;PMS_P2;Temp;Humidity;BMP_temperature;BMP_pressure;BME280_temperature;BME280_humidity;BME280_pressure;Samples;Min_cycle;Max_cycle;Signal;HPM_P1;HPM_P2
2023/04/10 00:02:19;;;;;;;45.53;26.45;;;6.70;74.60;;;;;;5006305;28;20557;-71
2023/04/10 00:04:45;;;;;;;43.88;25.10;;;6.70;74.50;;;;;;5009347;28;20540;-62
2023/04/10 00:07:11;;;;;;;52.10;28.20;;;6.70;74.80;;;;;;5008224;28;20124;-62
2023/04/10 00:09:37;;;;;;;48.47;26.38;;;6.70;74.40;;;;;;5009032;28;20081;-62
2023/04/10 00:12:03;;;;;;;50.03;29.33;;;6.70;74.50;;;;;;5009334;28;20131;-84
2023/04/10 00:14:30;;;;;;;45.95;25.88;;;6.70;74.40;;;;;;4991015;28;20046;-62
2023/04/10 00:16:55;;;;;;;50.22;26.85;;;6.70;74.40;;;;;;5000763;28;20496;-77
2023/04/10 00:19:21;;;;;;;46.58;25.95;;;6.60;74.60;;;;;;5006564;28;20056;-62
2023/04/10 00:21:47;;;;;;;48.13;28.05;;;6.60;74.60;;;;;;5009062;28;20121;-62
2023/04/10 00:24:13;;;;;;;50.72;27.80;;;6.70;74.70;;;;;;5004850;28;20037;-63
2023/04/10 00:26:39;;;;;;;45.65;25.95;;;6.70;74.60;;;;;;5009037;28;20447;-62
2023/04/10 00:29:05;;;;;;;52.20;29.02;;;6.60;74.30;;;;;;5008522;28;20381;-62
2023/04/10 00:31:31;;;;;;;48.95;27.00;;;6.70;74.30;;;;;;5008174;28;20121;-62
2023/04/10 00:33:56;;;;;;;50.17;28.17;;;6.70;73.50;;;;;;4991097;28;20129;-62
2023/04/10 00:36:22;;;;;;;51.50;27.67;;;6.70;73.70;;;;;;5007719;28;20052;-63
2023/04/10 00:38:51;;;;;;;47.67;27.63;;;6.60;74.10;;;;;;5009085;28;20538;-63
2023/04/10 00:41:17;;;;;;;50.83;27.00;;;6.60;74.10;;;;;;4990533;28;20046;-84
2023/04/10 00:43:43;;;;;;;48.30;27.48;;;6.60;73.80;;;;;;5006968;28;20404;-62
2023/04/10 00:46:09;;;;;;;50.55;28.08;;;6.60;73.40;;;;;;4990097;28;20054;-62
2023/04/10 00:48:35;;;;;;;51.38;28.23;;;6.60;73.00;;;;;;5007608;28;20107;-62
2023/04/10 00:51:01;;;;;;;55.55;30.20;;;6.70;72.80;;;;;;4990233;28;20140;-62
2023/04/10 00:53:28;;;;;;;51.22;28.50;;;6.60;72.60;;;;;;4990192;28;20045;-63
2023/04/10 00:55:55;;;;;;;50.70;29.67;;;6.60;72.60;;;;;;5008386;28;20092;-62
2023/04/10 00:58:20;;;;;;;54.88;29.60;;;6.60;72.70;;;;;;4989675;28;20192;-62
2023/04/10 01:00:47;;;;;;;48.72;28.83;;;6.50;73.00;;;;;;5007689;28;20539;-82
2023/04/10 01:03:15;;;;;;;55.92;28.27;;;6.50;73.50;;;;;;5006838;28;20502;-72
2023/04/10 01:05:54;;;;;;;54.20;29.35;;;6.50;74.20;;;;;;5008148;28;20507;-82
2023/04/10 01:08:38;;;;;;;53.30;30.73;;;6.40;74.30;;;;;;5008278;28;20116;-75
2023/04/10 01:11:17;;;;;;;50.40;27.75;;;6.40;74.40;;;;;;5007160;28;20045;-84
2023/04/10 01:14:19;;;;;;;52.53;29.05;;;6.40;75.00;;;;;;5007807;28;20045;-62
2023/04/10 01:16:52;;;;;;;48.38;27.80;;;6.40;74.80;;;;;;4995949;28;20049;-62
2023/04/10 01:19:50;;;;;;;53.47;29.80;;;6.30;74.80;;;;;;5007988;28;20041;-63
2023/04/10 01:22:17;;;;;;;54.25;29.38;;;6.30;74.90;;;;;;5008455;28;20416;-78
2023/04/10 01:24:59;;;;;;;50.65;27.92;;;6.30;75.20;;;;;;4987787;28;20060;-62
2023/04/10 01:27:56;;;;;;;47.17;26.77;;;6.20;75.60;;;;;;5008679;28;20046;-77
2023/04/10 01:30:23;;;;;;;53.58;28.25;;;6.20;76.20;;;;;;4996322;28;20138;-62
2023/04/10 01:32:54;;;;;;;51.25;28.05;;;6.20;76.60;;;;;;5006672;28;20045;-62
2023/04/10 01:35:21;;;;;;;47.72;28.80;;;6.20;76.60;;;;;;5007406;28;20052;-62
2023/04/10 01:37:49;;;;;;;51.47;30.35;;;6.10;76.40;;;;;;5006329;28;20054;-62
2023/04/10 01:40:18;;;;;;;54.33;29.98;;;6.10;76.20;;;;;;5007885;28;20083;-63
2023/04/10 01:42:49;;;;;;;53.13;29.77;;;6.10;75.80;;;;;;5007103;28;20054;-62
2023/04/10 01:45:19;;;;;;;51.40;27.63;;;6.10;75.80;;;;;;5007129;28;20057;-62
2023/04/10 01:47:46;;;;;;;44.88;27.27;;;6.00;75.90;;;;;;5008015;28;20042;-83
2023/04/10 01:50:13;;;;;;;44.97;26.25;;;6.10;75.90;;;;;;4997376;28;20197;-63
2023/04/10 01:52:40;;;;;;;47.95;24.10;;;6.10;76.00;;;;;;4988768;28;20050;-65
2023/04/10 01:55:07;;;;;;;57.47;26.25;;;6.10;75.90;;;;;;4986081;28;20049;-63
2023/04/10 01:57:35;;;;;;;49.13;25.40;;;6.10;75.70;;;;;;4988543;28;20053;-63
2023/04/10 02:00:02;;;;;;;42.70;26.95;;;6.10;75.60;;;;;;4986550;28;20120;-70
2023/04/10 02:02:32;;;;;;;45.50;25.65;;;6.10;75.30;;;;;;4976907;28;20041;-81
2023/04/10 02:04:57;;;;;;;45.03;26.52;;;6.10;75.30;;;;;;4970753;28;20061;-63
2023/04/10 02:07:42;;;;;;;45.88;24.35;;;6.10;75.20;;;;;;4986846;28;20053;-63
2023/04/10 02:10:10;;;;;;;53.33;26.48;;;6.00;75.40;;;;;;4987864;28;20038;-62
2023/04/10 02:12:48;;;;;;;45.40;23.83;;;6.00;76.00;;;;;;4986854;28;20090;-62
2023/04/10 02:15:18;;;;;;;45.45;25.33;;;6.00;76.60;;;;;;4970881;28;20116;-62
2023/04/10 02:17:44;;;;;;;44.00;23.92;;;6.10;76.10;;;;;;4988228;28;20081;-62
2023/04/10 02:20:10;;;;;;;47.97;25.63;;;6.00;76.10;;;;;;4986051;28;20046;-84
2023/04/10 02:22:36;;;;;;;41.92;23.00;;;6.00;76.10;;;;;;4988406;28;20050;-62
2023/04/10 02:25:05;;;;;;;47.22;25.10;;;6.00;76.20;;;;;;4986098;28;20089;-62
2023/04/10 02:27:33;;;;;;;42.10;23.80;;;6.00;76.10;;;;;;4988158;28;20058;-62
2023/04/10 02:30:02;;;;;;;44.85;26.02;;;6.00;76.10;;;;;;4986080;28;20054;-63
2023/04/10 02:32:28;;;;;;;43.60;25.13;;;6.00;76.10;;;;;;4984431;28;20081;-82
2023/04/10 02:34:55;;;;;;;42.42;25.45;;;6.00;76.20;;;;;;4987162;28;20042;-62
2023/04/10 02:37:22;;;;;;;38.35;22.88;;;6.00;76.60;;;;;;4987475;28;20416;-63
2023/04/10 02:39:47;;;;;;;46.35;23.80;;;5.90;77.30;;;;;;4988237;28;20685;-62
2023/04/10 02:42:14;;;;;;;43.75;23.92;;;5.90;78.30;;;;;;4968140;28;20121;-69
2023/04/10 02:44:40;;;;;;;42.30;23.35;;;5.80;79.60;;;;;;4970477;28;20082;-84
2023/04/10 02:47:06;;;;;;;44.72;23.90;;;5.80;80.30;;;;;;4987464;28;20125;-62
2023/04/10 02:49:36;;;;;;;40.95;23.77;;;5.90;80.80;;;;;;4994830;28;20539;-82
2023/04/10 02:52:01;;;;;;;;;;;5.80;80.90;;;;;;5006427;28;20506;-63
2023/04/10 02:54:27;;;;;;;43.60;22.95;;;5.90;81.90;;;;;;5010568;28;20026;-63
2023/04/10 02:56:55;;;;;;;45.15;25.05;;;5.90;82.10;;;;;;5010602;28;20077;-62
2023/04/10 02:59:21;;;;;;;44.60;24.48;;;5.80;82.30;;;;;;5009618;28;20046;-63
2023/04/10 03:01:47;;;;;;;45.67;24.95;;;5.90;82.60;;;;;;5002023;28;20493;-63
2023/04/10 03:04:13;;;;;;;42.15;23.40;;;5.90;82.60;;;;;;4997859;28;20057;-63
2023/04/10 03:06:38;;;;;;;39.45;22.73;;;5.90;82.80;;;;;;5010998;28;20077;-62
2023/04/10 03:09:04;;;;;;;42.90;24.40;;;5.80;82.70;;;;;;5009259;28;20049;-82
2023/04/10 03:11:30;;;;;;;40.13;24.27;;;5.80;83.00;;;;;;5002866;28;20076;-62
2023/04/10 03:13:58;;;;;;;41.42;22.05;;;5.80;83.00;;;;;;4989767;28;20045;-63
2023/04/10 03:16:24;;;;;;;37.20;22.17;;;5.80;84.20;;;;;;5011485;28;20034;-84
2023/04/10 03:18:52;;;;;;;43.60;21.75;;;5.80;83.50;;;;;;4993975;28;20061;-62
2023/04/10 03:21:18;;;;;;;40.58;20.08;;;5.70;83.50;;;;;;5008498;28;20037;-71
2023/04/10 03:23:44;;;;;;;39.45;22.75;;;5.70;84.00;;;;;;5000457;28;20039;-63
2023/04/10 03:26:10;;;;;;;40.22;21.63;;;5.70;83.90;;;;;;5006006;28;20060;-70
2023/04/10 03:28:35;;;;;;;42.90;23.52;;;5.70;83.60;;;;;;4992813;28;20132;-67
2023/04/10 03:31:02;;;;;;;39.92;23.15;;;5.80;83.90;;;;;;4990116;28;20059;-63
2023/04/10 03:33:28;;;;;;;44.20;23.52;;;5.70;84.00;;;;;;5005250;28;20049;-63
2023/04/10 03:35:56;;;;;;;43.05;23.73;;;5.80;84.20;;;;;;5003960;28;20081;-75
2023/04/10 03:38:21;;;;;;;39.08;21.50;;;5.80;84.20;;;;;;5008525;28;20046;-83
2023/04/10 03:40:47;;;;;;;41.75;23.33;;;5.80;84.50;;;;;;5008995;28;20480;-81
2023/04/10 03:43:13;;;;;;;38.95;22.83;;;5.70;84.90;;;;;;5000335;28;20067;-63
2023/04/10 03:45:38;;;;;;;41.42;23.20;;;5.70;85.40;;;;;;4997113;28;20947;-63
2023/04/10 03:48:04;;;;;;;41.45;23.45;;;5.70;85.70;;;;;;5008318;28;20045;-62
2023/04/10 03:50:30;;;;;;;42.95;23.20;;;5.70;85.70;;;;;;5009531;28;20124;-74
2023/04/10 03:52:56;;;;;;;41.63;22.73;;;5.70;85.90;;;;;;5008741;28;20050;-85
2023/04/10 03:55:22;;;;;;;38.08;23.40;;;5.70;85.90;;;;;;5001763;28;20060;-62
2023/04/10 03:57:48;;;;;;;41.47;23.98;;;5.70;86.20;;;;;;5010157;28;20092;-77
2023/04/10 04:00:15;;;;;;;38.13;21.52;;;5.70;86.60;;;;;;5007277;28;20881;-62
2023/04/10 04:02:41;;;;;;;41.00;22.40;;;5.70;86.60;;;;;;5003896;28;20049;-63
2023/04/10 04:05:08;;;;;;;45.55;24.52;;;5.70;86.70;;;;;;4985246;28;20046;-72
2023/04/10 04:07:33;;;;;;;37.58;21.33;;;5.70;86.40;;;;;;5000300;28;20088;-63
2023/04/10 04:09:59;;;;;;;43.63;22.88;;;5.70;86.10;;;;;;5009025;28;20093;-81
2023/04/10 04:12:25;;;;;;;41.15;22.88;;;5.70;86.30;;;;;;5008488;28;20497;-62
2023/04/10 04:14:51;;;;;;;39.83;21.60;;;5.70;86.10;;;;;;5009743;28;20042;-78
2023/04/10 04:17:17;;;;;;;38.70;22.35;;;5.70;86.00;;;;;;5002374;28;20034;-62
2023/04/10 04:19:43;;;;;;;37.67;18.58;;;5.70;85.90;;;;;;5009682;28;20034;-62
2023/04/10 04:22:09;;;;;;;38.53;21.88;;;5.70;86.30;;;;;;5007537;28;20060;-63
2023/04/10 04:24:35;;;;;;;39.30;22.40;;;5.70;86.30;;;;;;5009692;28;20436;-62
2023/04/10 04:27:01;;;;;;;37.20;20.77;;;5.70;86.00;;;;;;5006945;28;20042;-63
2023/04/10 04:29:27;;;;;;;42.13;24.60;;;5.70;86.00;;;;;;5008805;28;20168;-62
2023/04/10 04:31:53;;;;;;;39.00;21.00;;;5.70;85.80;;;;;;5002269;28;20113;-62
2023/04/10 04:34:19;;;;;;;38.33;22.88;;;5.70;85.80;;;;;;4970544;28;20097;-80
2023/04/10 04:36:44;;;;;;;41.38;22.17;;;5.70;85.60;;;;;;4995774;28;20095;-83
2023/04/10 04:39:10;;;;;;;43.95;24.23;;;5.70;85.70;;;;;;4999499;28;20046;-62
2023/04/10 04:41:36;;;;;;;44.88;24.75;;;5.70;85.70;;;;;;5000798;28;20080;-62
2023/04/10 04:44:02;;;;;;;40.03;23.73;;;5.70;85.60;;;;;;5007568;28;20518;-63
2023/04/10 04:46:28;;;;;;;39.85;22.52;;;5.70;85.90;;;;;;4994124;28;20078;-83
2023/04/10 04:48:54;;;;;;;47.45;25.95;;;5.70;85.90;;;;;;5008079;28;20147;-62
2023/04/10 04:51:19;;;;;;;46.65;24.58;;;5.80;85.80;;;;;;5007527;28;20050;-63
2023/04/10 04:53:45;;;;;;;34.75;21.30;;;5.80;85.40;;;;;;5007875;28;20100;-63
2023/04/10 04:56:11;;;;;;;43.10;24.83;;;5.80;85.40;;;;;;5007080;28;20108;-62
2023/04/10 04:58:37;;;;;;;40.70;23.88;;;5.90;85.50;;;;;;5008435;28;20053;-62
2023/04/10 05:01:03;;;;;;;37.65;20.90;;;5.90;85.70;;;;;;5005081;28;20049;-84
2023/04/10 05:03:28;;;;;;;44.58;25.17;;;5.90;85.20;;;;;;4987257;28;20582;-62
2023/04/10 05:05:55;;;;;;;40.95;23.13;;;6.00;84.80;;;;;;5001013;28;20049;-79
2023/04/10 05:08:21;;;;;;;43.47;24.20;;;6.00;85.10;;;;;;5008251;28;20048;-81
2023/04/10 05:10:47;;;;;;;42.40;24.23;;;6.00;84.90;;;;;;5007298;28;20045;-63
2023/04/10 05:13:14;;;;;;;41.45;23.08;;;6.10;84.90;;;;;;5007498;28;20038;-63
2023/04/10 05:15:40;;;;;;;41.85;25.38;;;6.10;84.90;;;;;;5001252;28;20046;-84
2023/04/10 05:18:06;;;;;;;40.13;24.63;;;6.20;83.90;;;;;;4994901;28;20128;-63
2023/04/10 05:20:34;;;;;;;45.47;24.67;;;6.20;84.20;;;;;;5008379;28;20050;-62
2023/04/10 05:23:00;;;;;;;42.45;24.13;;;6.30;83.50;;;;;;5006926;28;20062;-62
2023/04/10 05:25:26;;;;;;;43.90;26.10;;;6.30;83.40;;;;;;5006604;28;20558;-80
2023/04/10 05:27:52;;;;;;;41.35;23.15;;;6.30;82.80;;;;;;5004422;28;20034;-62
2023/04/10 05:30:18;;;;;;;48.38;24.80;;;6.30;82.80;;;;;;5007242;28;20046;-78
2023/04/10 05:32:44;;;;;;;39.13;23.40;;;6.30;82.70;;;;;;5005521;28;20133;-64
2023/04/10 05:35:11;;;;;;;43.60;26.30;;;6.30;83.20;;;;;;5006967;28;20049;-62
2023/04/10 05:37:36;;;;;;;42.08;22.23;;;6.40;82.70;;;;;;4993051;28;20054;-63
2023/04/10 05:40:02;;;;;;;40.67;23.50;;;6.40;82.90;;;;;;4992044;28;20392;-62
2023/04/10 05:42:28;;;;;;;41.90;24.02;;;6.40;83.20;;;;;;5006451;28;20216;-62
2023/04/10 05:44:54;;;;;;;34.33;19.15;;;6.50;83.30;;;;;;5006829;28;20113;-63
2023/04/10 05:47:20;;;;;;;42.10;23.40;;;6.50;82.80;;;;;;4988833;28;20093;-72
2023/04/10 05:49:45;;;;;;;45.45;25.08;;;6.50;82.50;;;;;;5007221;28;20460;-62
2023/04/10 05:52:11;;;;;;;43.03;25.85;;;6.60;82.80;;;;;;5007455;28;20049;-62
2023/04/10 05:54:37;;;;;;;41.33;22.05;;;6.70;82.20;;;;;;5007937;28;20042;-63
2023/04/10 05:57:02;;;;;;;38.00;22.38;;;6.80;81.90;;;;;;4987111;28;20041;-62
2023/04/10 05:59:28;;;;;;;40.63;23.48;;;6.90;80.60;;;;;;4999339;28;20560;-62
2023/04/10 06:01:56;;;;;;;40.53;23.13;;;6.90;80.60;;;;;;5000069;28;20076;-62
2023/04/10 06:04:22;;;;;;;42.20;23.95;;;7.00;79.30;;;;;;4989887;28;20056;-62
2023/04/10 06:06:48;;;;;;;47.90;24.98;;;7.10;79.40;;;;;;5003561;28;20533;-62
2023/04/10 06:09:14;;;;;;;41.35;23.55;;;7.20;77.20;;;;;;4993411;28;20058;-63
2023/04/10 06:11:39;;;;;;;40.58;24.15;;;7.30;76.10;;;;;;5007607;28;20053;-62
2023/04/10 06:14:05;;;;;;;40.33;24.02;;;7.40;76.20;;;;;;5006377;28;20488;-63
2023/04/10 06:16:31;;;;;;;38.15;22.85;;;7.50;76.30;;;;;;5007827;28;20078;-62
2023/04/10 06:18:57;;;;;;;43.63;24.13;;;7.60;74.60;;;;;;5004956;28;20466;-62
2023/04/10 06:21:23;;;;;;;40.47;22.13;;;7.70;71.90;;;;;;4994784;28;20033;-83
2023/04/10 06:23:49;;;;;;;40.63;22.95;;;7.70;70.80;;;;;;5010323;28;20109;-62
2023/04/10 06:26:15;;;;;;;41.88;23.75;;;7.80;69.90;;;;;;4977194;28;20404;-62
2023/04/10 06:28:41;;;;;;;34.85;22.30;;;7.90;69.20;;;;;;4993478;28;20061;-62
2023/04/10 06:31:07;;;;;;;42.10;23.23;;;7.90;67.00;;;;;;4991108;28;20049;-73
2023/04/10 06:33:36;;;;;;;45.00;24.40;;;8.00;66.20;;;;;;4991598;28;20137;-82
2023/04/10 06:36:02;;;;;;;42.95;23.73;;;8.10;64.60;;;;;;4990282;28;20138;-62
2023/04/10 06:38:29;;;;;;;37.38;21.88;;;8.20;63.30;;;;;;4991095;28;20113;-62
2023/04/10 06:40:55;;;;;;;46.90;22.55;;;8.20;62.20;;;;;;4990134;28;20503;-62
2023/04/10 06:43:20;;;;;;;35.20;16.30;;;8.40;62.70;;;;;;4991749;28;20122;-62
2023/04/10 06:45:46;;;;;;;42.75;23.42;;;8.40;60.50;;;;;;4989772;28;20039;-62
2023/04/10 06:48:12;;;;;;;35.63;18.50;;;8.50;61.20;;;;;;4990826;28;20065;-63
2023/04/10 06:50:38;;;;;;;40.08;22.05;;;8.70;59.10;;;;;;4980265;28;20096;-62
2023/04/10 06:53:03;;;;;;;37.97;20.45;;;8.80;57.80;;;;;;5008421;28;20038;-63
2023/04/10 06:55:30;;;;;;;44.85;23.40;;;8.90;57.10;;;;;;5010612;28;20408;-62
2023/04/10 06:57:55;;;;;;;42.92;24.27;;;9.00;56.90;;;;;;5008509;28;20051;-62
2023/04/10 07:00:22;;;;;;;39.38;22.73;;;9.10;56.20;;;;;;5010919;28;20042;-62
2023/04/10 07:02:47;;;;;;;42.15;24.75;;;9.30;56.70;;;;;;5009145;28;20516;-62
2023/04/10 07:05:14;;;;;;;46.45;23.98;;;9.30;54.50;;;;;;5005217;28;20038;-62
2023/04/10 07:07:41;;;;;;;46.35;24.65;;;9.40;52.40;;;;;;5009473;28;20423;-62
2023/04/10 07:10:07;;;;;;;40.33;20.35;;;9.40;52.30;;;;;;4991443;28;20561;-63
2023/04/10 07:12:33;;;;;;;43.85;22.50;;;9.50;50.90;;;;;;4992540;28;20049;-62
2023/04/10 07:14:59;;;;;;;44.58;22.90;;;9.50;51.50;;;;;;5008885;28;20506;-63
2023/04/10 07:17:25;;;;;;;40.63;22.13;;;9.50;51.20;;;;;;5010318;28;20068;-62
2023/04/10 07:19:50;;;;;;;37.20;22.65;;;9.60;50.90;;;;;;5008399;28;20050;-62
2023/04/10 07:22:16;;;;;;;36.78;22.13;;;9.70;51.00;;;;;;5010364;28;20380;-62
2023/04/10 07:24:43;;;;;;;37.97;19.88;;;9.80;49.50;;;;;;5008422;28;20098;-62
2023/04/10 07:27:09;;;;;;;37.78;24.25;;;10.00;49.00;;;;;;5010077;28;20054;-62
2023/04/10 07:29:34;;;;;;;39.95;22.00;;;10.30;48.40;;;;;;5009579;28;20507;-62
2023/04/10 07:32:00;;;;;;;30.70;17.38;;;10.60;43.70;;;;;;5009999;28;20042;-64
2023/04/10 07:34:26;;;;;;;38.15;23.02;;;10.90;43.90;;;;;;5009830;28;20400;-62
2023/04/10 07:36:52;;;;;;;44.33;22.13;;;11.00;42.70;;;;;;5012465;28;20045;-67
2023/04/10 07:39:17;;;;;;;39.97;20.60;;;11.00;38.70;;;;;;5011153;28;20447;-62
2023/04/10 07:41:43;;;;;;;34.20;18.00;;;10.80;38.20;;;;;;5008992;28;20053;-62
2023/04/10 07:44:09;;;;;;;32.72;21.65;;;10.60;37.90;;;;;;5010657;28;20128;-63
2023/04/10 07:46:35;;;;;;;31.23;19.35;;;10.60;38.50;;;;;;5003705;28;20500;-63
2023/04/10 07:49:01;;;;;;;31.98;20.00;;;10.60;39.00;;;;;;5001601;28;20115;-63
2023/04/10 07:51:27;;;;;;;36.75;19.10;;;10.70;36.90;;;;;;4992942;28;20125;-62
2023/04/10 07:53:53;;;;;;;34.25;21.05;;;10.90;38.00;;;;;;4986936;28;20061;-63
2023/04/10 07:56:20;;;;;;;29.42;15.27;;;11.10;37.00;;;;;;4990661;28;20050;-63
2023/04/10 07:58:46;;;;;;;29.08;16.95;;;11.40;36.40;;;;;;4988069;28;20046;-63
2023/04/10 08:01:12;;;;;;;27.58;16.42;;;11.60;36.30;;;;;;4990498;28;20477;-63
2023/04/10 08:03:40;;;;;;;29.58;16.92;;;11.90;32.30;;;;;;4970710;28;20077;-63
2023/04/10 08:06:08;;;;;;;35.45;19.83;;;12.10;30.50;;;;;;4972200;28;20054;-77
2023/04/10 08:08:38;;;;;;;29.83;18.55;;;12.20;30.00;;;;;;4989723;28;20541;-81
2023/04/10 08:11:20;;;;;;;23.00;12.88;;;12.30;29.00;;;;;;4988548;28;20550;-63
2023/04/10 08:13:46;;;;;;;29.80;18.20;;;12.30;25.70;;;;;;4989714;28;20399;-62
2023/04/10 08:16:11;;;;;;;19.38;8.75;;;12.30;26.90;;;;;;4988337;28;20106;-63
2023/04/10 08:18:37;;;;;;;29.75;18.25;;;12.40;25.40;;;;;;4972091;28;20061;-62
2023/04/10 08:21:03;;;;;;;32.75;16.60;;;12.50;26.00;;;;;;4988729;28;20085;-63
2023/04/10 08:23:29;;;;;;;24.33;14.63;;;12.70;24.60;;;;;;4970714;28;20050;-63
2023/04/10 08:25:54;;;;;;;30.08;17.00;;;12.90;23.20;;;;;;4970253;28;20468;-63
2023/04/10 08:28:20;;;;;;;30.58;17.65;;;13.10;24.00;;;;;;4987818;28;20038;-63
2023/04/10 08:30:46;;;;;;;26.60;16.48;;;13.30;21.00;;;;;;4987907;28;20408;-63
2023/04/10 08:33:11;;;;;;;23.30;16.10;;;13.50;22.80;;;;;;4987485;28;20051;-63
2023/04/10 08:35:37;;;;;;;22.90;11.90;;;13.70;21.60;;;;;;4989220;28;20034;-63
2023/04/10 08:38:03;;;;;;;21.75;15.25;;;13.90;16.70;;;;;;4987376;28;20080;-63
2023/04/10 08:40:29;;;;;;;20.13;14.68;;;13.90;17.80;;;;;;4984713;28;20074;-63
2023/04/10 08:42:55;;;;;;;17.13;9.98;;;13.90;15.50;;;;;;4987300;28;20113;-63
2023/04/10 08:45:21;;;;;;;18.75;11.20;;;13.90;12.70;;;;;;4987587;28;20547;-78
2023/04/10 08:47:49;;;;;;;23.88;14.18;;;14.00;12.70;;;;;;4988615;28;20056;-63
2023/04/10 08:50:16;;;;;;;14.98;10.52;;;13.90;14.60;;;;;;4988934;28;20050;-63
2023/04/10 08:52:44;;;;;;;16.35;9.63;;;13.80;11.60;;;;;;5006993;28;20133;-71
2023/04/10 08:55:12;;;;;;;18.40;10.75;;;13.60;11.50;;;;;;4988931;28;20454;-63
2023/04/10 08:57:39;;;;;;;19.50;12.55;;;13.50;13.70;;;;;;5008518;28;20082;-63
2023/04/10 09:00:06;;;;;;;20.42;12.63;;;13.60;16.80;;;;;;5006427;28;20507;-63
2023/04/10 09:02:32;;;;;;;21.73;12.20;;;13.80;12.70;;;;;;5004301;28;20538;-63
2023/04/10 09:05:01;;;;;;;13.98;10.57;;;14.10;13.30;;;;;;5005743;28;20045;-64
2023/04/10 09:07:27;;;;;;;14.00;7.95;;;14.40;15.40;;;;;;5006758;28;20040;-75
2023/04/10 09:09:53;;;;;;;13.25;8.93;;;14.50;9.50;;;;;;5008291;28;20080;-63
2023/04/10 09:12:19;;;;;;;15.32;11.30;;;14.50;12.60;;;;;;5005934;28;20431;-63
2023/04/10 09:14:44;;;;;;;20.40;10.57;;;14.50;11.70;;;;;;5006741;28;20124;-66
2023/04/10 09:17:15;;;;;;;10.90;7.80;;;14.80;11.70;;;;;;5006874;28;20053;-66
2023/04/10 09:19:43;;;;;;;11.48;7.00;;;14.90;7.10;;;;;;4990254;28;20056;-64
2023/04/10 09:22:09;;;;;;;15.95;10.00;;;14.90;5.30;;;;;;4989630;28;20064;-71
2023/04/10 09:24:37;;;;;;;11.20;6.15;;;14.70;6.70;;;;;;4988600;28;20046;-64
2023/04/10 09:27:03;;;;;;;11.25;5.15;;;14.60;4.40;;;;;;4989633;28;20041;-63
2023/04/10 09:29:43;;;;;;;14.48;7.65;;;14.50;6.10;;;;;;4988715;28;20440;-63
2023/04/10 09:32:11;;;;;;;13.80;8.68;;;14.60;6.30;;;;;;5007897;28;20057;-63
2023/04/10 09:34:52;;;;;;;17.42;9.10;;;14.60;5.80;;;;;;5003827;28;20049;-68
2023/04/10 09:37:19;;;;;;;13.18;9.00;;;14.60;4.70;;;;;;5007017;28;20116;-63
2023/04/10 09:39:45;;;;;;;16.90;10.30;;;14.50;3.10;;;;;;5008192;28;20068;-64
2023/04/10 09:42:11;;;;;;;9.40;6.05;;;14.40;4.80;;;;;;5005688;28;20480;-63
2023/04/10 09:44:38;;;;;;;11.70;8.40;;;14.40;4.10;;;;;;5004123;28;20046;-62
2023/04/10 09:47:13;;;;;;;12.98;8.10;;;14.30;3.90;;;;;;5005850;28;20034;-87
2023/04/10 09:49:53;;;;;;;16.63;9.25;;;14.40;4.40;;;;;;4989624;28;20053;-62
2023/04/10 09:52:27;;;;;;;25.25;10.20;;;14.60;5.40;;;;;;5000881;28;20057;-84
2023/04/10 09:55:04;;;;;;;15.70;10.18;;;14.70;4.30;;;;;;5005860;28;20108;-63
2023/04/10 09:57:32;;;;;;;12.35;9.57;;;14.80;7.30;;;;;;5000594;28;20565;-62
2023/04/10 09:59:59;;;;;;;12.55;9.07;;;15.00;5.10;;;;;;5009129;28;20445;-66
2023/04/10 10:02:29;;;;;;;14.18;7.15;;;14.90;3.40;;;;;;5016984;28;20103;-62
2023/04/10 10:04:56;;;;;;;17.13;8.75;;;14.90;5.70;;;;;;4994804;28;20042;-63
2023/04/10 10:07:22;;;;;;;11.70;7.97;;;14.90;4.90;;;;;;5013682;28;20559;-62
2023/04/10 10:09:50;;;;;;;11.05;7.80;;;14.90;1.90;;;;;;5014265;28;20072;-63
2023/04/10 10:12:22;;;;;;;10.77;8.02;;;14.90;1.00;;;;;;5012395;28;20037;-61
2023/04/10 10:15:20;;;;;;;13.05;8.65;;;15.00;1.00;;;;;;4996462;28;20487;-62
2023/04/10 10:17:50;;;;;;;8.23;6.88;;;15.10;3.80;;;;;;5009988;28;20527;-62
2023/04/10 10:20:19;;;;;;;;;;;15.20;1.00;;;;;;5013944;28;20049;-63
2023/04/10 10:22:46;;;;;;;6.82;5.70;;;15.30;2.00;;;;;;4996861;28;19926;-62
2023/04/10 10:25:12;;;;;;;10.98;7.47;;;15.30;1.00;;;;;;5012683;28;20092;-63
2023/04/10 10:27:40;;;;;;;9.07;6.03;;;15.50;3.70;;;;;;5014374;28;20406;-63
2023/04/10 10:30:08;;;;;;;7.57;5.82;;;15.60;1.00;;;;;;5009157;28;20092;-63
2023/04/10 10:32:35;;;;;;;5.80;4.32;;;15.70;1.00;;;;;;5014200;28;20038;-62
2023/04/10 10:35:06;;;;;;;11.88;7.32;;;15.80;1.00;;;;;;5012046;28;20042;-62
2023/04/10 10:37:33;;;;;;;10.32;6.15;;;15.80;1.00;;;;;;5013535;28;20049;-62
2023/04/10 10:40:11;;;;;;;9.55;6.90;;;15.90;1.00;;;;;;5014287;28;20443;-63
2023/04/10 10:42:49;;;;;;;9.55;6.70;;;16.00;1.00;;;;;;5011071;28;20057;-65
2023/04/10 10:45:20;;;;;;;5.32;3.85;;;16.10;1.00;;;;;;4994089;28;20119;-62
2023/04/10 10:47:53;;;;;;;10.07;6.80;;;16.10;1.00;;;;;;5017864;28;20056;-63
2023/04/10 10:50:23;;;;;;;8.85;5.85;;;16.10;1.00;;;;;;5007052;28;20446;-62
2023/04/10 10:52:51;;;;;;;12.65;6.82;;;16.10;1.00;;;;;;5012650;28;20058;-62
2023/04/10 10:55:38;;;;;;;10.38;5.95;;;16.00;1.00;;;;;;5010700;28;20096;-63
2023/04/10 10:58:09;;;;;;;14.30;6.18;;;15.90;1.00;;;;;;4978416;28;20090;-63
2023/04/10 11:01:05;;;;;;;7.80;5.95;;;15.90;1.00;;;;;;4987334;28;20129;-63
2023/04/10 11:03:30;;;;;;;9.43;6.93;;;15.90;1.00;;;;;;5000189;28;20058;-62
2023/04/10 11:06:02;;;;;;;7.80;5.10;;;16.00;1.00;;;;;;4996602;28;20063;-62
2023/04/10 11:08:34;;;;;;;9.20;7.18;;;16.00;1.00;;;;;;5010998;28;20060;-62
2023/04/10 11:11:01;;;;;;;14.07;7.95;;;16.10;1.00;;;;;;5010864;28;20072;-62
2023/04/10 11:13:27;;;;;;;11.32;6.03;;;16.20;1.00;;;;;;5009409;28;20034;-62
2023/04/10 11:15:55;;;;;;;6.18;4.93;;;16.20;1.00;;;;;;5010588;28;20519;-63
2023/04/10 11:18:43;;;;;;;5.50;4.32;;;16.10;1.00;;;;;;4991601;28;20048;-62
2023/04/10 11:21:10;;;;;;;12.98;5.18;;;15.90;1.00;;;;;;5009654;28;20073;-63
2023/04/10 11:23:49;;;;;;;11.38;4.10;;;15.90;1.00;;;;;;5008931;28;20119;-63
2023/04/10 11:26:34;;;;;;;6.43;4.70;;;15.80;1.00;;;;;;5008275;28;20474;-62
2023/04/10 11:29:01;;;;;;;8.82;5.80;;;15.80;1.00;;;;;;5010792;28;20054;-62
2023/04/10 11:31:27;;;;;;;7.35;5.95;;;15.90;1.00;;;;;;5008405;28;20512;-62
2023/04/10 11:33:56;;;;;;;6.00;4.70;;;15.90;1.00;;;;;;5009823;28;20042;-63
2023/04/10 11:36:22;;;;;;;7.68;5.25;;;15.90;1.00;;;;;;5009832;28;20104;-62
2023/04/10 11:38:59;;;;;;;7.55;4.90;;;16.00;1.00;;;;;;5008494;28;20381;-71
2023/04/10 11:41:33;;;;;;;11.35;5.47;;;16.00;1.00;;;;;;5009715;28;20100;-62
2023/04/10 11:44:01;;;;;;;4.30;3.92;;;16.10;1.00;;;;;;5008571;28;20050;-69
2023/04/10 11:46:28;;;;;;;13.40;5.75;;;16.10;1.00;;;;;;5010016;28;20068;-63
2023/04/10 11:49:02;;;;;;;6.03;3.63;;;16.10;1.00;;;;;;5009296;28;20072;-62
2023/04/10 11:51:28;;;;;;;7.20;4.10;;;16.20;1.00;;;;;;5008734;28;20092;-63
2023/04/10 11:54:12;;;;;;;9.25;5.15;;;16.10;1.00;;;;;;5009398;28;20355;-62
2023/04/10 11:56:40;;;;;;;5.05;4.30;;;16.10;1.00;;;;;;5008221;28;20081;-62
2023/04/10 11:59:09;;;;;;;4.60;3.78;;;16.10;1.00;;;;;;5009650;28;20053;-69
2023/04/10 12:01:36;;;;;;;7.80;4.17;;;16.20;1.00;;;;;;5008841;28;20042;-62
2023/04/10 12:04:02;;;;;;;4.60;3.63;;;16.10;1.00;;;;;;4991378;28;20060;-62
2023/04/10 12:06:28;;;;;;;4.60;3.75;;;16.10;1.00;;;;;;4991131;28;20050;-63
2023/04/10 12:08:54;;;;;;;13.55;5.30;;;16.10;1.00;;;;;;5009120;28;20121;-63
2023/04/10 12:11:21;;;;;;;4.57;3.65;;;16.10;1.00;;;;;;5012076;28;20116;-63
2023/04/10 12:13:51;;;;;;;4.75;4.05;;;16.10;1.00;;;;;;5008145;28;20049;-63
2023/04/10 12:16:17;;;;;;;4.60;3.70;;;16.10;1.00;;;;;;5008971;28;20050;-62
2023/04/10 12:18:46;;;;;;;4.55;4.05;;;16.10;1.00;;;;;;4990686;28;20042;-63
2023/04/10 12:21:12;;;;;;;4.97;3.33;;;16.10;1.00;;;;;;5008468;28;20407;-63
2023/04/10 12:23:38;;;;;;;4.50;3.78;;;16.10;1.00;;;;;;4991953;28;20038;-63
2023/04/10 12:26:09;;;;;;;5.10;4.38;;;16.10;1.00;;;;;;5008377;28;20056;-63
2023/04/10 12:28:36;;;;;;;3.60;2.67;;;16.10;1.00;;;;;;5009294;28;20045;-63
2023/04/10 12:31:03;;;;;;;3.70;3.35;;;16.10;1.00;;;;;;5006672;28;20111;-63
2023/04/10 12:33:29;;;;;;;6.32;4.30;;;16.20;1.00;;;;;;5006782;28;20050;-62
2023/04/10 12:35:55;;;;;;;4.00;3.47;;;16.30;1.00;;;;;;5006513;28;20038;-62
2023/04/10 12:38:43;;;;;;;3.35;3.15;;;16.40;1.00;;;;;;5007926;28;20088;-63
2023/04/10 12:41:10;;;;;;;3.83;2.47;;;16.50;1.00;;;;;;5008233;28;20046;-62
2023/04/10 12:43:38;;;;;;;3.50;3.17;;;16.60;1.00;;;;;;5006877;28;20132;-63
2023/04/10 12:46:05;;;;;;;4.65;3.70;;;16.60;1.00;;;;;;5009334;28;20128;-62